createdAt,value
2018-08-25T00:00:28.575Z,3.90
2018-08-25T00:02:56.925Z,5.60
2018-08-25T00:05:25.167Z,3.70
2018-08-25T00:07:53.433Z,4.03
2018-08-25T00:10:21.737Z,4.43
2018-08-25T00:12:50.009Z,4.00
2018-08-25T00:15:18.313Z,3.77
2018-08-25T00:17:46.573Z,4.73
2018-08-25T00:20:14.837Z,3.90
2018-08-25T00:22:43.093Z,4.57
2018-08-25T00:25:11.359Z,3.97
2018-08-25T00:27:39.609Z,4.47
2018-08-25T00:30:13.026Z,4.30
2018-08-25T00:32:41.281Z,5.13
2018-08-25T00:35:09.591Z,4.07
2018-08-25T00:37:38.925Z,4.10
2018-08-25T00:40:07.217Z,4.07
2018-08-25T00:42:35.486Z,4.13
2018-08-25T00:45:03.787Z,4.00
2018-08-25T00:47:32.029Z,4.80
2018-08-25T00:50:00.314Z,4.17
2018-08-25T00:52:28.650Z,4.30
2018-08-25T00:54:56.986Z,4.77
2018-08-25T00:57:25.303Z,4.67
2018-08-25T00:59:54.305Z,5.57
2018-08-25T01:02:22.589Z,4.30
2018-08-25T01:04:50.843Z,4.50
2018-08-25T01:07:19.102Z,5.10
2018-08-25T01:09:47.364Z,4.60
2018-08-25T01:12:15.620Z,4.80
2018-08-25T01:14:43.993Z,4.50
2018-08-25T01:17:12.273Z,5.30
2018-08-25T01:19:41.559Z,5.07
2018-08-25T01:22:09.860Z,4.80
2018-08-25T01:24:38.149Z,4.50
2018-08-25T01:27:06.401Z,4.57
2018-08-25T01:29:34.663Z,5.53
2018-08-25T01:32:03.164Z,4.50
2018-08-25T01:34:31.404Z,5.20
2018-08-25T01:37:00.717Z,5.10
2018-08-25T01:39:29.739Z,5.60
2018-08-25T01:41:58.010Z,5.97
2018-08-25T01:44:26.777Z,6.20
2018-08-25T01:46:55.033Z,5.17
2018-08-25T01:49:23.310Z,5.30
2018-08-25T01:51:51.568Z,5.70
2018-08-25T01:54:19.884Z,5.73
2018-08-25T01:56:48.145Z,5.53
2018-08-25T01:59:16.422Z,5.40
2018-08-25T02:01:44.682Z,4.20
2018-08-25T02:04:12.935Z,6.50
2018-08-25T02:06:41.431Z,5.67
2018-08-25T02:09:12.342Z,5.63
2018-08-25T02:11:40.945Z,5.50
2018-08-25T02:14:09.815Z,5.47
2018-08-25T02:16:38.627Z,6.37
2018-08-25T02:19:06.881Z,5.60
2018-08-25T02:21:35.149Z,6.27
2018-08-25T02:24:03.390Z,6.10
2018-08-25T02:26:31.669Z,4.70
2018-08-25T02:28:59.912Z,6.20
2018-08-25T02:31:28.189Z,6.00
2018-08-25T02:33:56.469Z,5.40
2018-08-25T02:36:24.741Z,6.03
2018-08-25T02:38:52.993Z,6.97
2018-08-25T02:41:21.301Z,6.00
2018-08-25T02:43:49.551Z,5.80
2018-08-25T02:46:17.863Z,5.50
2018-08-25T02:48:46.134Z,6.07
2018-08-25T02:51:14.373Z,5.07
2018-08-25T02:53:42.633Z,5.53
2018-08-25T02:56:10.880Z,5.73
2018-08-25T02:58:39.162Z,5.70
2018-08-25T03:01:07.670Z,6.13
2018-08-25T03:03:35.973Z,5.47
2018-08-25T03:06:04.224Z,5.10
2018-08-25T03:08:32.585Z,5.67
2018-08-25T03:11:00.843Z,5.80
2018-08-25T03:13:29.141Z,5.33
2018-08-25T03:15:57.391Z,5.43
2018-08-25T03:18:25.690Z,5.17
2018-08-25T03:20:53.932Z,5.60
2018-08-25T03:23:22.209Z,4.80
2018-08-25T03:25:50.453Z,5.17
2018-08-25T03:28:18.797Z,5.00
2018-08-25T03:30:47.044Z,4.70
2018-08-25T03:33:15.322Z,5.40
2018-08-25T03:35:43.597Z,4.70
2018-08-25T03:38:11.882Z,5.50
2018-08-25T03:40:41.177Z,4.23
2018-08-25T03:43:09.425Z,4.60
2018-08-25T03:45:37.697Z,5.20
2018-08-25T03:48:06.129Z,4.13
2018-08-25T03:50:34.398Z,3.90
2018-08-25T03:53:02.653Z,4.07
2018-08-25T03:55:30.983Z,4.43
2018-08-25T03:57:59.188Z,5.10
2018-08-25T04:00:27.465Z,4.90
2018-08-25T04:02:55.721Z,4.70
2018-08-25T04:05:24.001Z,3.67
2018-08-25T04:07:52.249Z,3.80
2018-08-25T04:10:20.515Z,4.93
2018-08-25T04:12:48.820Z,4.27
2018-08-25T04:15:17.193Z,4.77
2018-08-25T04:17:45.437Z,4.03
2018-08-25T04:20:13.715Z,4.90
2018-08-25T04:22:41.990Z,4.17
2018-08-25T04:25:10.234Z,4.80
2018-08-25T04:27:38.473Z,4.00
2018-08-25T04:30:06.990Z,4.90
2018-08-25T04:32:35.653Z,4.33
2018-08-25T04:35:04.030Z,4.67
2018-08-25T04:37:32.275Z,4.07
2018-08-25T04:40:00.533Z,4.20
2018-08-25T04:42:28.802Z,4.70
2018-08-25T04:44:57.052Z,4.87
2018-08-25T04:47:25.324Z,3.70
2018-08-25T04:49:55.229Z,4.00
2018-08-25T04:52:23.551Z,5.50
2018-08-25T04:54:51.797Z,4.50
2018-08-25T04:57:20.085Z,4.50
2018-08-25T04:59:48.336Z,4.40
2018-08-25T05:02:16.609Z,4.10
2018-08-25T05:04:44.859Z,4.60
2018-08-25T05:07:13.129Z,3.17
2018-08-25T05:09:41.381Z,3.73
2018-08-25T05:12:10.725Z,4.20
2018-08-25T05:14:39.396Z,4.20
2018-08-25T05:17:07.665Z,3.50
2018-08-25T05:19:35.914Z,3.83
2018-08-25T05:22:04.192Z,4.23
2018-08-25T05:24:32.431Z,3.50
2018-08-25T05:27:00.717Z,3.97
2018-08-25T05:29:28.969Z,3.50
2018-08-25T05:31:57.213Z,3.67
2018-08-25T05:34:25.481Z,3.73
2018-08-25T05:36:53.785Z,4.17
2018-08-25T05:39:22.058Z,3.90
2018-08-25T05:41:50.325Z,4.20
2018-08-25T05:44:18.655Z,4.00
2018-08-25T05:46:46.841Z,4.50
2018-08-25T05:49:15.141Z,4.70
2018-08-25T05:51:43.399Z,3.67
2018-08-25T05:54:11.677Z,3.60
2018-08-25T05:56:40.074Z,3.30
2018-08-25T05:59:08.349Z,3.90
2018-08-25T06:01:36.604Z,4.23
2018-08-25T06:04:04.898Z,3.93
2018-08-25T06:06:33.205Z,3.97
2018-08-25T06:09:01.474Z,4.67
2018-08-25T06:11:29.725Z,3.20
2018-08-25T06:13:58.040Z,3.13
2018-08-25T06:16:26.294Z,3.47
2018-08-25T06:18:54.599Z,2.90
2018-08-25T06:21:22.849Z,4.40
2018-08-25T06:23:51.124Z,3.37
2018-08-25T06:26:19.426Z,3.43
2018-08-25T06:28:47.677Z,3.83
2018-08-25T06:31:15.953Z,3.70
2018-08-25T06:33:44.193Z,3.57
2018-08-25T06:36:12.486Z,3.30
2018-08-25T06:38:40.729Z,3.80
2018-08-25T06:41:09.046Z,3.63
2018-08-25T06:43:37.409Z,3.57
2018-08-25T06:46:08.069Z,3.60
2018-08-25T06:48:37.520Z,3.73
2018-08-25T06:51:06.813Z,4.20
2018-08-25T06:53:35.301Z,3.30
2018-08-25T06:56:03.679Z,3.53
2018-08-25T06:58:31.969Z,2.80
2018-08-25T07:01:00.257Z,3.47
2018-08-25T07:03:28.709Z,3.13
2018-08-25T07:05:57.010Z,2.53
2018-08-25T07:08:25.265Z,3.20
2018-08-25T07:10:55.567Z,2.87
2018-08-25T07:13:23.869Z,3.30
2018-08-25T07:15:52.200Z,4.00
2018-08-25T07:18:20.457Z,3.20
2018-08-25T07:20:48.737Z,3.60
2018-08-25T07:23:17.038Z,3.67
2018-08-25T07:25:47.476Z,4.37
2018-08-25T07:28:15.656Z,3.50
2018-08-25T07:30:43.926Z,4.37
2018-08-25T07:33:12.207Z,3.80
2018-08-25T07:35:40.514Z,4.03
2018-08-25T07:38:08.866Z,3.90
2018-08-25T07:40:38.139Z,4.17
2018-08-25T07:43:06.641Z,3.80
2018-08-25T07:45:34.905Z,3.60
2018-08-25T07:48:03.170Z,4.80
2018-08-25T07:50:31.409Z,3.53
2018-08-25T07:52:59.708Z,4.17
2018-08-25T07:55:28.109Z,3.67
2018-08-25T07:57:56.382Z,3.97
2018-08-25T08:00:24.629Z,3.90
2018-08-25T08:02:53.071Z,3.97
2018-08-25T08:05:21.337Z,4.40
2018-08-25T08:07:49.649Z,4.07
2018-08-25T08:10:17.900Z,3.90
2018-08-25T08:12:46.229Z,4.50
2018-08-25T08:15:14.613Z,3.80
2018-08-25T08:17:42.862Z,4.10
2018-08-25T08:20:11.640Z,4.53
2018-08-25T08:22:39.902Z,4.13
2018-08-25T08:25:08.185Z,3.90
2018-08-25T08:27:36.511Z,4.23
2018-08-25T08:30:05.749Z,3.40
2018-08-25T08:32:34.009Z,3.70
2018-08-25T08:35:02.289Z,3.87
2018-08-25T08:37:30.540Z,4.10
2018-08-25T08:39:58.805Z,4.10
2018-08-25T08:42:27.178Z,4.47
2018-08-25T08:44:55.347Z,3.77
2018-08-25T08:47:23.657Z,3.57
2018-08-25T08:49:52.238Z,4.10
2018-08-25T08:52:20.539Z,4.53
2018-08-25T08:54:48.808Z,4.33
2018-08-25T08:57:17.068Z,3.53
2018-08-25T08:59:45.442Z,4.30
2018-08-25T09:02:13.693Z,3.90
2018-08-25T09:04:42.001Z,4.70
2018-08-25T09:07:10.349Z,4.30
2018-08-25T09:09:38.997Z,4.30
2018-08-25T09:12:07.426Z,4.50
2018-08-25T09:14:35.730Z,5.00
2018-08-25T09:19:54.973Z,4.37
2018-08-25T09:22:23.389Z,3.57
2018-08-25T09:24:51.733Z,3.67
2018-08-25T09:27:20.041Z,4.07
2018-08-25T09:29:48.284Z,5.00
2018-08-25T09:32:16.553Z,3.27
2018-08-25T09:34:44.802Z,3.20
2018-08-25T09:37:13.081Z,3.60
2018-08-25T09:39:41.325Z,3.80
2018-08-25T09:42:09.590Z,3.50
2018-08-25T09:44:38.841Z,3.17
2018-08-25T09:47:07.205Z,2.90
2018-08-25T09:49:35.381Z,2.90
2018-08-25T09:52:03.706Z,3.37
2018-08-25T09:54:31.967Z,2.60
2018-08-25T09:57:00.265Z,3.00
2018-08-25T09:59:28.508Z,3.20
2018-08-25T10:02:00.771Z,3.17
2018-08-25T10:04:29.937Z,3.13
2018-08-25T10:06:58.276Z,3.67
2018-08-25T10:09:26.549Z,3.50
2018-08-25T10:11:54.805Z,3.37
2018-08-25T10:14:23.121Z,3.03
2018-08-25T10:16:51.466Z,3.40
2018-08-25T10:19:19.678Z,3.63
2018-08-25T10:21:47.930Z,3.80
2018-08-25T10:24:16.207Z,3.70
2018-08-25T10:26:44.598Z,3.47
2018-08-25T10:29:12.888Z,4.20
2018-08-25T10:31:41.143Z,4.17
2018-08-25T10:34:09.427Z,4.20
2018-08-25T10:36:37.833Z,4.20
2018-08-25T10:39:09.469Z,4.43
2018-08-25T10:41:37.771Z,5.47
2018-08-25T10:44:06.673Z,4.63
2018-08-25T10:46:35.025Z,3.30
2018-08-25T10:49:03.303Z,3.90
2018-08-25T10:51:31.557Z,4.17
2018-08-25T10:53:59.908Z,3.70
2018-08-25T10:56:28.284Z,3.70
2018-08-25T10:58:56.571Z,3.90
2018-08-25T11:01:24.857Z,3.97
2018-08-25T11:03:53.158Z,4.67
2018-08-25T11:06:21.441Z,3.90
2018-08-25T11:08:49.746Z,4.47
2018-08-25T11:11:18.013Z,4.27
2018-08-25T11:13:46.433Z,4.70
2018-08-25T11:16:14.819Z,4.60
2018-08-25T11:18:43.252Z,4.70
2018-08-25T11:21:12.674Z,4.60
2018-08-25T11:23:40.983Z,4.73
2018-08-25T11:26:09.353Z,5.27
2018-08-25T11:28:37.612Z,6.33
2018-08-25T11:31:05.914Z,4.77
2018-08-25T11:33:34.210Z,4.10
2018-08-25T11:36:02.533Z,4.83
2018-08-25T11:38:31.069Z,3.77
2018-08-25T11:40:59.367Z,3.70
2018-08-25T11:43:28.810Z,4.17
2018-08-25T11:45:57.144Z,3.50
2018-08-25T11:48:25.415Z,4.10
2018-08-25T11:50:53.718Z,3.90
2018-08-25T11:53:22.031Z,3.23
2018-08-25T11:55:50.314Z,3.50
2018-08-25T11:58:18.697Z,4.40
2018-08-25T12:00:46.994Z,4.17
2018-08-25T12:03:15.306Z,4.47
2018-08-25T12:05:43.605Z,4.20
2018-08-25T12:08:11.925Z,4.60
2018-08-25T12:10:40.181Z,4.00
2018-08-25T12:13:08.465Z,4.17
2018-08-25T12:15:36.933Z,4.23
2018-08-25T12:18:06.281Z,4.27
2018-08-25T12:20:34.553Z,3.73
2018-08-25T12:23:02.845Z,5.37
2018-08-25T12:25:31.164Z,5.10
2018-08-25T12:27:59.408Z,5.80
2018-08-25T12:30:27.678Z,6.50
2018-08-25T12:32:55.952Z,7.60
2018-08-25T12:35:24.233Z,6.60
2018-08-25T12:37:53.681Z,7.00
2018-08-25T12:40:21.938Z,7.43
2018-08-25T12:42:50.218Z,6.10
2018-08-25T12:45:18.493Z,6.40
2018-08-25T12:47:46.758Z,5.80
2018-08-25T12:50:15.317Z,6.57
2018-08-25T12:52:43.741Z,6.63
2018-08-25T12:55:12.057Z,7.10
2018-08-25T12:57:40.305Z,6.47
2018-08-25T13:00:08.610Z,5.73
2018-08-25T13:02:36.885Z,5.00
2018-08-25T13:05:05.435Z,5.63
2018-08-25T13:07:33.785Z,4.73
2018-08-25T13:10:02.490Z,4.70
2018-08-25T13:12:30.737Z,3.90
2018-08-25T13:14:59.051Z,4.23
2018-08-25T13:17:28.329Z,5.20
2018-08-25T13:19:57.665Z,4.53
2018-08-25T13:22:25.943Z,4.53
2018-08-25T13:24:56.346Z,5.67
2018-08-25T13:27:24.629Z,5.10
2018-08-25T13:29:52.944Z,5.80
2018-08-25T13:32:21.226Z,6.07
2018-08-25T13:34:49.530Z,6.13
2018-08-25T13:37:17.808Z,7.27
2018-08-25T13:39:46.127Z,5.65
2018-08-25T13:42:14.385Z,6.00
2018-08-25T13:44:42.658Z,4.50
2018-08-25T13:47:11.011Z,4.73
2018-08-25T13:49:39.320Z,2.93
2018-08-25T13:52:09.461Z,2.80
2018-08-25T13:54:37.726Z,2.70
2018-08-25T13:57:06.035Z,3.23
2018-08-25T13:59:34.299Z,2.80
2018-08-25T14:02:02.581Z,3.07
2018-08-25T14:04:30.849Z,3.50
2018-08-25T14:06:59.235Z,3.47
2018-08-25T14:09:27.493Z,4.77
2018-08-25T14:11:55.778Z,3.87
2018-08-25T14:14:24.069Z,3.30
2018-08-25T14:16:52.394Z,5.33
2018-08-25T14:19:20.641Z,4.73
2018-08-25T14:21:48.966Z,5.60
2018-08-25T14:24:17.240Z,5.63
2018-08-25T14:26:46.548Z,4.70
2018-08-25T14:29:14.792Z,4.30
2018-08-25T14:31:43.099Z,5.40
2018-08-25T14:34:11.393Z,5.10
2018-08-25T14:36:39.702Z,5.23
2018-08-25T14:39:10.353Z,5.43
2018-08-25T14:41:39.688Z,4.70
2018-08-25T14:44:07.929Z,4.30
2018-08-25T14:46:38.313Z,4.90
2018-08-25T14:49:07.018Z,3.90
2018-08-25T14:51:35.305Z,4.40
2018-08-25T14:54:03.608Z,3.47
2018-08-25T14:56:31.906Z,4.70
2018-08-25T14:59:00.253Z,3.83
2018-08-25T15:01:28.548Z,4.33
2018-08-25T15:03:57.280Z,3.97
2018-08-25T15:06:25.736Z,3.53
2018-08-25T15:08:54.083Z,4.07
2018-08-25T15:11:22.386Z,4.13
2018-08-25T15:13:50.741Z,3.70
2018-08-25T15:16:19.047Z,3.60
2018-08-25T15:18:47.422Z,3.90
2018-08-25T15:21:15.749Z,3.83
2018-08-25T15:23:44.125Z,4.63
2018-08-25T15:26:14.494Z,4.10
2018-08-25T15:28:42.829Z,5.50
2018-08-25T15:31:11.181Z,4.87
2018-08-25T15:33:39.454Z,4.80
2018-08-25T15:36:07.980Z,5.10
2018-08-25T15:38:36.240Z,4.87
2018-08-25T15:41:04.719Z,4.50
2018-08-25T15:43:33.065Z,4.73
2018-08-25T15:46:01.324Z,4.90
2018-08-25T15:48:29.573Z,5.00
2018-08-25T15:50:57.854Z,4.80
2018-08-25T15:53:27.142Z,4.27
2018-08-25T15:58:46.422Z,3.47
2018-08-25T16:01:14.689Z,3.50
2018-08-25T16:03:44.021Z,2.83
2018-08-25T16:06:13.607Z,2.43
2018-08-25T16:08:41.873Z,2.33
2018-08-25T16:11:10.149Z,1.97
2018-08-25T16:13:38.465Z,2.03
2018-08-25T16:16:06.789Z,1.80
2018-08-25T16:18:35.452Z,1.73
2018-08-25T16:21:03.985Z,1.80
2018-08-25T16:23:32.542Z,2.00
2018-08-25T16:26:00.874Z,2.37
2018-08-25T16:28:29.246Z,2.27
2018-08-25T16:30:57.567Z,1.63
2018-08-25T16:33:25.952Z,1.60
2018-08-25T16:35:55.286Z,2.00
2018-08-25T16:38:23.654Z,1.57
2018-08-25T16:40:52.940Z,2.03
2018-08-25T16:43:21.275Z,1.30
2018-08-25T16:45:49.633Z,1.63
2018-08-25T16:48:17.932Z,1.43
2018-08-25T16:50:46.233Z,1.43
2018-08-25T16:53:14.532Z,1.10
2018-08-25T16:55:42.822Z,1.33
2018-08-25T16:58:12.157Z,1.07
2018-08-25T17:00:40.442Z,1.20
2018-08-25T17:03:08.971Z,1.70
2018-08-25T17:05:37.289Z,1.90
2018-08-25T17:08:05.572Z,1.10
2018-08-25T17:10:33.865Z,1.20
2018-08-25T17:13:02.153Z,1.40
2018-08-25T17:15:30.439Z,1.03
2018-08-25T17:17:58.747Z,0.80
2018-08-25T17:20:27.345Z,0.80
2018-08-25T17:22:56.721Z,1.27
2018-08-25T17:25:25.030Z,1.00
2018-08-25T17:27:53.317Z,0.83
2018-08-25T17:30:21.638Z,0.90
2018-08-25T17:32:49.981Z,0.73
2018-08-25T17:35:19.109Z,1.57
2018-08-25T17:37:47.687Z,1.00
2018-08-25T17:40:16.054Z,1.07
2018-08-25T17:42:45.412Z,1.33
2018-08-25T17:45:13.790Z,1.13
2018-08-25T17:47:42.018Z,1.47
2018-08-25T17:50:10.353Z,1.90
2018-08-25T17:52:38.619Z,1.27
2018-08-25T17:55:06.960Z,1.00
2018-08-25T17:57:35.427Z,1.10
2018-08-25T18:00:03.646Z,1.33
2018-08-25T18:02:31.926Z,1.50
2018-08-25T18:05:00.230Z,1.20
2018-08-25T18:07:28.480Z,1.97
2018-08-25T18:09:57.125Z,1.13
2018-08-25T18:12:25.390Z,0.90
2018-08-25T18:14:53.654Z,1.07
2018-08-25T18:17:21.993Z,0.90
2018-08-25T18:19:50.197Z,1.60
2018-08-25T18:22:18.505Z,1.30
2018-08-25T18:24:47.198Z,1.30
2018-08-25T18:27:15.501Z,1.20
2018-08-25T18:29:43.829Z,1.23
2018-08-25T18:32:13.714Z,1.10
2018-08-25T18:34:41.997Z,1.03
2018-08-25T18:37:10.282Z,1.60
2018-08-25T18:39:38.801Z,1.63
2018-08-25T18:42:08.212Z,1.20
2018-08-25T18:44:36.478Z,1.23
2018-08-25T18:47:04.985Z,1.10
2018-08-25T18:49:34.470Z,1.60
2018-08-25T18:52:02.805Z,1.50
2018-08-25T18:54:32.173Z,1.30
2018-08-25T18:57:01.439Z,1.37
2018-08-25T18:59:29.985Z,1.50
2018-08-25T19:01:58.394Z,1.10
2018-08-25T19:04:26.535Z,2.27
2018-08-25T19:06:54.870Z,1.37
2018-08-25T19:09:23.214Z,1.33
2018-08-25T19:11:51.705Z,1.80
2018-08-25T19:14:21.097Z,1.50
2018-08-25T19:16:50.291Z,1.50
2018-08-25T19:19:18.609Z,1.30
2018-08-25T19:21:46.877Z,1.10
2018-08-25T19:24:15.235Z,1.57
2018-08-25T19:26:43.454Z,1.30
2018-08-25T19:29:12.146Z,1.67
2018-08-25T19:31:40.433Z,1.83
2018-08-25T19:34:08.761Z,1.53
2018-08-25T19:36:37.033Z,1.17
2018-08-25T19:39:07.778Z,1.50
2018-08-25T19:41:39.689Z,1.67
2018-08-25T19:44:08.026Z,2.10
2018-08-25T19:46:36.608Z,1.50
2018-08-25T19:49:05.079Z,1.60
2018-08-25T19:51:33.349Z,1.33
2018-08-25T19:54:01.982Z,1.50
2018-08-25T19:56:30.239Z,1.60
2018-08-25T19:58:58.590Z,2.00
2018-08-25T20:01:26.868Z,2.17
2018-08-25T20:03:55.205Z,2.00
2018-08-25T20:06:23.481Z,2.43
2018-08-25T20:08:52.028Z,1.70
2018-08-25T20:11:20.374Z,1.80
2018-08-25T20:13:48.700Z,2.37
2018-08-25T20:16:17.793Z,2.20
2018-08-25T20:18:46.121Z,1.90
2018-08-25T20:21:14.600Z,1.93
2018-08-25T20:23:42.921Z,2.13
2018-08-25T20:26:11.429Z,1.93
2018-08-25T20:28:39.729Z,2.30
2018-08-25T20:31:08.061Z,2.40
2018-08-25T20:33:36.357Z,1.83
2018-08-25T20:36:04.816Z,2.57
2018-08-25T20:38:33.151Z,1.77
2018-08-25T20:41:01.554Z,2.03
2018-08-25T20:43:29.901Z,1.60
2018-08-25T20:45:58.366Z,2.23
2018-08-25T20:48:26.597Z,1.90
2018-08-25T20:50:54.949Z,2.03
2018-08-25T20:53:24.288Z,1.90
2018-08-25T20:55:52.553Z,2.00
2018-08-25T20:58:20.857Z,2.00
2018-08-25T21:00:49.300Z,1.90
2018-08-25T21:03:17.538Z,1.60
2018-08-25T21:05:45.821Z,1.90
2018-08-25T21:08:14.121Z,1.70
2018-08-25T21:10:42.422Z,2.07
2018-08-25T21:13:10.730Z,2.50
2018-08-25T21:15:39.133Z,1.70
2018-08-25T21:18:07.542Z,1.60
2018-08-25T21:20:36.965Z,1.53
2018-08-25T21:23:05.411Z,1.20
2018-08-25T21:25:33.689Z,1.70
2018-08-25T21:28:01.962Z,1.27
2018-08-25T21:30:30.276Z,1.37
2018-08-25T21:32:58.610Z,1.40
2018-08-25T21:35:26.888Z,1.23
2018-08-25T21:37:56.232Z,1.17
2018-08-25T21:40:25.593Z,0.80
2018-08-25T21:42:53.921Z,1.43
2018-08-25T21:45:22.183Z,1.00
2018-08-25T21:47:50.536Z,1.60
2018-08-25T21:50:18.811Z,1.63
2018-08-25T21:52:47.134Z,1.43
2018-08-25T21:55:15.392Z,1.10
2018-08-25T21:57:43.665Z,1.30
2018-08-25T22:00:11.998Z,1.23
2018-08-25T22:02:40.258Z,0.87
2018-08-25T22:05:09.601Z,1.40
2018-08-25T22:07:37.925Z,1.13
2018-08-25T22:10:06.230Z,1.37
2018-08-25T22:12:34.481Z,1.20
2018-08-25T22:15:02.823Z,1.23
2018-08-25T22:17:31.101Z,1.40
2018-08-25T22:19:59.409Z,1.20
2018-08-25T22:22:27.723Z,1.00
2018-08-25T22:25:00.729Z,1.10
2018-08-25T22:27:29.012Z,1.23
2018-08-25T22:29:57.326Z,1.53
2018-08-25T22:32:25.633Z,1.37
2018-08-25T22:34:53.977Z,1.23
2018-08-25T22:37:22.341Z,1.93
2018-08-25T22:39:50.673Z,1.40
2018-08-25T22:42:18.985Z,1.30
2018-08-25T22:44:47.283Z,2.00
2018-08-25T22:47:15.582Z,1.27
2018-08-25T22:49:43.894Z,1.53
2018-08-25T22:52:12.181Z,1.80
2018-08-25T22:54:40.537Z,1.23
2018-08-25T22:57:08.865Z,1.30
2018-08-25T22:59:37.143Z,1.70
2018-08-25T23:02:06.545Z,1.20
2018-08-25T23:04:34.817Z,2.00
2018-08-25T23:07:03.121Z,1.40
2018-08-25T23:09:31.406Z,1.80
2018-08-25T23:11:59.699Z,1.50
2018-08-25T23:14:28.071Z,1.40
2018-08-25T23:16:57.512Z,1.50
2018-08-25T23:19:25.794Z,1.93
2018-08-25T23:21:54.105Z,1.60
2018-08-25T23:24:22.365Z,0.80
2018-08-25T23:26:51.244Z,1.50
2018-08-25T23:29:19.565Z,1.50
2018-08-25T23:31:48.932Z,1.50
2018-08-25T23:34:17.208Z,1.47
2018-08-25T23:36:45.520Z,2.20
2018-08-25T23:39:13.811Z,1.60
2018-08-25T23:41:42.165Z,1.30
2018-08-25T23:44:10.662Z,1.80
2018-08-25T23:46:39.024Z,1.40
2018-08-25T23:49:07.342Z,1.30
2018-08-25T23:51:35.838Z,1.47
2018-08-25T23:54:04.213Z,1.60
2018-08-25T23:56:32.699Z,1.33
2018-08-25T23:59:01.047Z,1.53
